sensor_id;sensor_type;location;lat;lon;timestamp;pressure;altitude;pressure_sealevel;temperature
20490;BMP280;10403;54.092;12.122;2024-02-28T00:00:36;102193.00;;;4.62
20490;BMP280;10403;54.092;12.122;2024-02-28T00:03:03;102199.00;;;4.61
20490;BMP280;10403;54.092;12.122;2024-02-28T00:05:31;102202.53;;;4.63
20490;BMP280;10403;54.092;12.122;2024-02-28T00:07:59;102196.53;;;4.64
20490;BMP280;10403;54.092;12.122;2024-02-28T00:10:26;102181.81;;;4.63
20490;BMP280;10403;54.092;12.122;2024-02-28T00:12:53;102193.22;;;4.68
20490;BMP280;10403;54.092;12.122;2024-02-28T00:15:21;102185.50;;;4.70
20490;BMP280;10403;54.092;12.122;2024-02-28T00:17:52;102183.72;;;4.69
20490;BMP280;10403;54.092;12.122;2024-02-28T00:20:20;102179.44;;;4.69
20490;BMP280;10403;54.092;12.122;2024-02-28T00:22:48;102181.09;;;4.67
20490;BMP280;10403;54.092;12.122;2024-02-28T00:25:15;102183.56;;;4.64
20490;BMP280;10403;54.092;12.122;2024-02-28T00:27:42;102187.94;;;4.65
20490;BMP280;10403;54.092;12.122;2024-02-28T00:30:10;102187.94;;;4.65
20490;BMP280;10403;54.092;12.122;2024-02-28T00:32:37;102189.50;;;4.60
20490;BMP280;10403;54.092;12.122;2024-02-28T00:35:05;102192.94;;;4.61
20490;BMP280;10403;54.092;12.122;2024-02-28T00:37:32;102195.50;;;4.59
20490;BMP280;10403;54.092;12.122;2024-02-28T00:39:59;102110.06;;;4.10
20490;BMP280;10403;54.092;12.122;2024-02-28T00:42:27;102177.91;;;4.51
20490;BMP280;10403;54.092;12.122;2024-02-28T00:44:54;102191.16;;;4.58
20490;BMP280;10403;54.092;12.122;2024-02-28T00:47:21;102202.41;;;4.59
20490;BMP280;10403;54.092;12.122;2024-02-28T00:49:48;102202.41;;;4.59
20490;BMP280;10403;54.092;12.122;2024-02-28T00:52:16;102193.75;;;4.58
20490;BMP280;10403;54.092;12.122;2024-02-28T00:54:43;102192.03;;;4.59
20490;BMP280;10403;54.092;12.122;2024-02-28T00:57:10;102193.69;;;4.57
20490;BMP280;10403;54.092;12.122;2024-02-28T00:59:38;102184.91;;;4.53
20490;BMP280;10403;54.092;12.122;2024-02-28T01:02:05;102188.44;;;4.55
20490;BMP280;10403;54.092;12.122;2024-02-28T01:04:32;102190.97;;;4.54
20490;BMP280;10403;54.092;12.122;2024-02-28T01:07:00;102191.66;;;4.48
20490;BMP280;10403;54.092;12.122;2024-02-28T01:09:27;102193.53;;;4.52
20490;BMP280;10403;54.092;12.122;2024-02-28T01:11:54;102194.34;;;4.51
20490;BMP280;10403;54.092;12.122;2024-02-28T01:14:22;102184.59;;;4.44
20490;BMP280;10403;54.092;12.122;2024-02-28T01:16:49;102200.38;;;4.50
20490;BMP280;10403;54.092;12.122;2024-02-28T01:19:17;102198.66;;;4.51
20490;BMP280;10403;54.092;12.122;2024-02-28T01:21:44;102194.34;;;4.51
20490;BMP280;10403;54.092;12.122;2024-02-28T01:24:11;102178.47;;;4.40
20490;BMP280;10403;54.092;12.122;2024-02-28T01:26:39;102196.09;;;4.52
20490;BMP280;10403;54.092;12.122;2024-02-28T01:29:07;102196.06;;;4.51
20490;BMP280;10403;54.092;12.122;2024-02-28T01:31:34;102202.13;;;4.51
20490;BMP280;10403;54.092;12.122;2024-02-28T01:34:01;102187.44;;;4.50
20490;BMP280;10403;54.092;12.122;2024-02-28T01:36:29;102176.94;;;4.47
20490;BMP280;10403;54.092;12.122;2024-02-28T01:38:56;102177.88;;;4.49
20490;BMP280;10403;54.092;12.122;2024-02-28T01:41:23;102171.75;;;4.47
20490;BMP280;10403;54.092;12.122;2024-02-28T01:43:51;102177.84;;;4.47
20490;BMP280;10403;54.092;12.122;2024-02-28T01:46:25;102183.09;;;4.51
20490;BMP280;10403;54.092;12.122;2024-02-28T01:48:54;102183.97;;;4.51
20490;BMP280;10403;54.092;12.122;2024-02-28T01:51:26;102185.66;;;4.49
20490;BMP280;10403;54.092;12.122;2024-02-28T01:53:57;102182.13;;;4.47
20490;BMP280;10403;54.092;12.122;2024-02-28T01:56:26;102188.97;;;4.45
20490;BMP280;10403;54.092;12.122;2024-02-28T01:58:55;102185.50;;;4.44
20490;BMP280;10403;54.092;12.122;2024-02-28T02:01:23;102176.06;;;4.46
20490;BMP280;10403;54.092;12.122;2024-02-28T02:03:50;102175.13;;;4.44
20490;BMP280;10403;54.092;12.122;2024-02-28T02:06:18;102177.78;;;4.46
20490;BMP280;10403;54.092;12.122;2024-02-28T02:08:46;102175.13;;;4.44
20490;BMP280;10403;54.092;12.122;2024-02-28T02:11:15;102189.91;;;4.47
20490;BMP280;10403;54.092;12.122;2024-02-28T02:13:53;102179.22;;;4.38
20490;BMP280;10403;54.092;12.122;2024-02-28T02:16:21;102176.53;;;4.35
20490;BMP280;10403;54.092;12.122;2024-02-28T02:18:54;102174.69;;;4.31
20490;BMP280;10403;54.092;12.122;2024-02-28T02:21:34;102186.78;;;4.32
20490;BMP280;10403;54.092;12.122;2024-02-28T02:24:02;102170.41;;;4.33
20490;BMP280;10403;54.092;12.122;2024-02-28T02:26:29;102164.41;;;4.34
20490;BMP280;10403;54.092;12.122;2024-02-28T02:28:56;102167.94;;;4.36
20490;BMP280;10403;54.092;12.122;2024-02-28T02:31:24;102169.75;;;4.38
20490;BMP280;10403;54.092;12.122;2024-02-28T02:33:52;102163.75;;;4.41
20490;BMP280;10403;54.092;12.122;2024-02-28T02:36:22;102162.13;;;4.43
20490;BMP280;10403;54.092;12.122;2024-02-28T02:38:49;102157.00;;;4.44
20490;BMP280;10403;54.092;12.122;2024-02-28T02:41:17;102170.00;;;4.46
20490;BMP280;10403;54.092;12.122;2024-02-28T02:43:45;102155.22;;;4.43
20490;BMP280;10403;54.092;12.122;2024-02-28T02:46:12;102157.88;;;4.45
20490;BMP280;10403;54.092;12.122;2024-02-28T02:48:39;102146.56;;;4.43
20490;BMP280;10403;54.092;12.122;2024-02-28T02:51:06;102157.88;;;4.45
20490;BMP280;10403;54.092;12.122;2024-02-28T02:53:34;102166.59;;;4.47
20490;BMP280;10403;54.092;12.122;2024-02-28T02:56:04;102162.22;;;4.46
20490;BMP280;10403;54.092;12.122;2024-02-28T02:58:31;102154.50;;;4.47
20490;BMP280;10403;54.092;12.122;2024-02-28T03:00:58;102143.25;;;4.47
20490;BMP280;10403;54.092;12.122;2024-02-28T03:03:26;102139.91;;;4.51
20490;BMP280;10403;54.092;12.122;2024-02-28T03:05:54;102144.28;;;4.52
20490;BMP280;10403;54.092;12.122;2024-02-28T03:08:21;102143.44;;;4.53
20490;BMP280;10403;54.092;12.122;2024-02-28T03:10:48;102138.31;;;4.55
20490;BMP280;10403;54.092;12.122;2024-02-28T03:13:15;102136.66;;;4.57
20490;BMP280;10403;54.092;12.122;2024-02-28T03:15:42;102140.16;;;4.57
20490;BMP280;10403;54.092;12.122;2024-02-28T03:18:10;102142.84;;;4.60
20490;BMP280;10403;54.092;12.122;2024-02-28T03:20:37;102134.13;;;4.58
20490;BMP280;10403;54.092;12.122;2024-02-28T03:23:06;102121.00;;;4.54
20490;BMP280;10403;54.092;12.122;2024-02-28T03:25:33;102132.31;;;4.56
20490;BMP280;10403;54.092;12.122;2024-02-28T03:28:01;102137.50;;;4.56
20490;BMP280;10403;54.092;12.122;2024-02-28T03:30:28;102142.72;;;4.57
20490;BMP280;10403;54.092;12.122;2024-02-28T03:32:55;102159.16;;;4.58
20490;BMP280;10403;54.092;12.122;2024-02-28T03:35:22;102153.94;;;4.56
20490;BMP280;10403;54.092;12.122;2024-02-28T03:37:50;102144.22;;;4.51
20490;BMP280;10403;54.092;12.122;2024-02-28T03:40:17;102148.63;;;4.53
20490;BMP280;10403;54.092;12.122;2024-02-28T03:42:44;102150.41;;;4.54
20490;BMP280;10403;54.092;12.122;2024-02-28T03:45:13;102157.28;;;4.54
20490;BMP280;10403;54.092;12.122;2024-02-28T03:47:40;102159.06;;;4.55
20490;BMP280;10403;54.092;12.122;2024-02-28T03:50:07;102148.63;;;4.53
20490;BMP280;10403;54.092;12.122;2024-02-28T03:52:35;102144.28;;;4.52
20490;BMP280;10403;54.092;12.122;2024-02-28T03:55:02;102139.03;;;4.51
20490;BMP280;10403;54.092;12.122;2024-02-28T03:57:30;102142.44;;;4.48
20490;BMP280;10403;54.092;12.122;2024-02-28T03:59:57;102151.91;;;4.47
20490;BMP280;10403;54.092;12.122;2024-02-28T04:02:24;102147.50;;;4.45
20490;BMP280;10403;54.092;12.122;2024-02-28T04:04:52;102152.69;;;4.45
20490;BMP280;10403;54.092;12.122;2024-02-28T04:07:19;102152.50;;;4.39
20490;BMP280;10403;54.092;12.122;2024-02-28T04:09:46;102167.41;;;4.46
20490;BMP280;10403;54.092;12.122;2024-02-28T04:12:13;102166.59;;;4.47
20490;BMP280;10403;54.092;12.122;2024-02-28T04:14:41;102179.53;;;4.47
20490;BMP280;10403;54.092;12.122;2024-02-28T04:17:08;102192.59;;;4.50
20490;BMP280;10403;54.092;12.122;2024-02-28T04:19:35;102185.66;;;4.49
20490;BMP280;10403;54.092;12.122;2024-02-28T04:22:06;102187.38;;;4.49
20490;BMP280;10403;54.092;12.122;2024-02-28T04:24:33;102185.66;;;4.49
20490;BMP280;10403;54.092;12.122;2024-02-28T04:27:01;102188.25;;;4.49
20490;BMP280;10403;54.092;12.122;2024-02-28T04:29:31;102189.16;;;4.51
20490;BMP280;10403;54.092;12.122;2024-02-28T04:31:58;102194.34;;;4.51
20490;BMP280;10403;54.092;12.122;2024-02-28T04:34:26;102189.06;;;4.48
20490;BMP280;10403;54.092;12.122;2024-02-28T04:36:53;102197.88;;;4.53
20490;BMP280;10403;54.092;12.122;2024-02-28T04:39:20;102203.06;;;4.53
20490;BMP280;10403;54.092;12.122;2024-02-28T04:41:47;102197.88;;;4.53
20490;BMP280;10403;54.092;12.122;2024-02-28T04:44:15;102195.22;;;4.52
20490;BMP280;10403;54.092;12.122;2024-02-28T04:46:42;102206.47;;;4.52
20490;BMP280;10403;54.092;12.122;2024-02-28T04:49:09;102209.13;;;4.54
20490;BMP280;10403;54.092;12.122;2024-02-28T04:51:36;102213.53;;;4.56
20490;BMP280;10403;54.092;12.122;2024-02-28T04:54:04;102210.13;;;4.57
20490;BMP280;10403;54.092;12.122;2024-02-28T04:56:31;102209.25;;;4.57
20490;BMP280;10403;54.092;12.122;2024-02-28T04:58:58;102199.69;;;4.56
20490;BMP280;10403;54.092;12.122;2024-02-28T05:01:26;102210.22;;;4.60
20490;BMP280;10403;54.092;12.122;2024-02-28T05:03:55;102209.34;;;4.60
20490;BMP280;10403;54.092;12.122;2024-02-28T05:06:23;102205.91;;;4.61
20490;BMP280;10403;54.092;12.122;2024-02-28T05:08:50;102204.19;;;4.61
20490;BMP280;10403;54.092;12.122;2024-02-28T05:11:17;102191.91;;;4.56
20490;BMP280;10403;54.092;12.122;2024-02-28T05:13:45;102204.19;;;4.61
20490;BMP280;10403;54.092;12.122;2024-02-28T05:16:13;102188.38;;;4.54
20490;BMP280;10403;54.092;12.122;2024-02-28T05:18:41;102193.88;;;4.63
20490;BMP280;10403;54.092;12.122;2024-02-28T05:21:12;102199.19;;;4.66
20490;BMP280;10403;54.092;12.122;2024-02-28T05:23:41;102188.88;;;4.67
20490;BMP280;10403;54.092;12.122;2024-02-28T05:26:08;102192.41;;;4.69
20490;BMP280;10403;54.092;12.122;2024-02-28T05:28:36;102182.94;;;4.71
20490;BMP280;10403;54.092;12.122;2024-02-28T05:31:23;102193.34;;;4.73
20490;BMP280;10403;54.092;12.122;2024-02-28T05:33:53;102188.16;;;4.73
20490;BMP280;10403;54.092;12.122;2024-02-28T05:36:31;102186.47;;;4.73
20490;BMP280;10403;54.092;12.122;2024-02-28T05:39:00;102190.69;;;4.71
20490;BMP280;10403;54.092;12.122;2024-02-28T05:41:28;102202.94;;;4.75
20490;BMP280;10403;54.092;12.122;2024-02-28T05:43:55;102207.16;;;4.72
20490;BMP280;10403;54.092;12.122;2024-02-28T05:46:23;102204.47;;;4.69
20490;BMP280;10403;54.092;12.122;2024-02-28T05:48:50;102205.53;;;4.75
20490;BMP280;10403;54.092;12.122;2024-02-28T05:51:18;102188.91;;;4.69
20490;BMP280;10403;54.092;12.122;2024-02-28T05:53:46;102192.59;;;4.75
20490;BMP280;10403;54.092;12.122;2024-02-28T05:56:13;102186.56;;;4.76
20490;BMP280;10403;54.092;12.122;2024-02-28T05:58:43;102188.34;;;4.77
20490;BMP280;10403;54.092;12.122;2024-02-28T06:01:12;102191.75;;;4.76
20490;BMP280;10403;54.092;12.122;2024-02-28T06:03:40;102197.00;;;4.78
20490;BMP280;10403;54.092;12.122;2024-02-28T06:06:07;102182.16;;;4.74
20490;BMP280;10403;54.092;12.122;2024-02-28T06:08:38;102200.47;;;4.78
20490;BMP280;10403;54.092;12.122;2024-02-28T06:11:07;102208.25;;;4.78
20490;BMP280;10403;54.092;12.122;2024-02-28T06:13:35;102211.72;;;4.79
20490;BMP280;10403;54.092;12.122;2024-02-28T06:16:03;102225.56;;;4.79
20490;BMP280;10403;54.092;12.122;2024-02-28T06:18:30;102232.50;;;4.80
20490;BMP280;10403;54.092;12.122;2024-02-28T06:21:01;102229.00;;;4.80
20490;BMP280;10403;54.092;12.122;2024-02-28T06:23:28;102241.22;;;4.82
20490;BMP280;10403;54.092;12.122;2024-02-28T06:25:56;102234.25;;;4.81
20490;BMP280;10403;54.092;12.122;2024-02-28T06:28:24;102239.44;;;4.81
20490;BMP280;10403;54.092;12.122;2024-02-28T06:30:52;102244.63;;;4.81
20490;BMP280;10403;54.092;12.122;2024-02-28T06:33:19;102248.97;;;4.82
20490;BMP280;10403;54.092;12.122;2024-02-28T06:35:47;102256.81;;;4.84
20490;BMP280;10403;54.092;12.122;2024-02-28T06:38:14;102262.88;;;4.84
20490;BMP280;10403;54.092;12.122;2024-02-28T06:40:44;102254.28;;;4.86
20490;BMP280;10403;54.092;12.122;2024-02-28T06:43:11;102265.59;;;4.88
20490;BMP280;10403;54.092;12.122;2024-02-28T06:45:39;102258.69;;;4.88
20490;BMP280;10403;54.092;12.122;2024-02-28T06:48:07;102254.28;;;4.86
20490;BMP280;10403;54.092;12.122;2024-02-28T06:50:34;102258.59;;;4.85
20490;BMP280;10403;54.092;12.122;2024-02-28T06:53:02;102264.66;;;4.86
20490;BMP280;10403;54.092;12.122;2024-02-28T06:55:29;102251.63;;;4.84
20490;BMP280;10403;54.092;12.122;2024-02-28T06:57:56;102259.34;;;4.82
20490;BMP280;10403;54.092;12.122;2024-02-28T07:00:24;102261.88;;;4.81
20490;BMP280;10403;54.092;12.122;2024-02-28T07:02:51;102257.50;;;4.78
20490;BMP280;10403;54.092;12.122;2024-02-28T07:05:21;102260.94;;;4.77
20490;BMP280;10403;54.092;12.122;2024-02-28T07:07:49;102270.47;;;4.78
20490;BMP280;10403;54.092;12.122;2024-02-28T07:10:16;102273.88;;;4.77
20490;BMP280;10403;54.092;12.122;2024-02-28T07:12:43;102274.72;;;4.76
20490;BMP280;10403;54.092;12.122;2024-02-28T07:15:11;102276.47;;;4.77
20490;BMP280;10403;54.092;12.122;2024-02-28T07:17:38;102283.31;;;4.75
20490;BMP280;10403;54.092;12.122;2024-02-28T07:20:07;102283.31;;;4.75
20490;BMP280;10403;54.092;12.122;2024-02-28T07:22:35;102279.78;;;4.73
20490;BMP280;10403;54.092;12.122;2024-02-28T07:25:04;102275.44;;;4.72
20490;BMP280;10403;54.092;12.122;2024-02-28T07:27:32;102288.66;;;4.80
20490;BMP280;10403;54.092;12.122;2024-02-28T07:29:59;102277.44;;;4.81
20490;BMP280;10403;54.092;12.122;2024-02-28T07:32:26;102287.16;;;4.87
20490;BMP280;10403;54.092;12.122;2024-02-28T07:34:53;102292.50;;;4.91
20490;BMP280;10403;54.092;12.122;2024-02-28T07:37:21;102277.88;;;4.93
20490;BMP280;10403;54.092;12.122;2024-02-28T07:39:48;102282.28;;;4.96
20490;BMP280;10403;54.092;12.122;2024-02-28T07:42:16;102285.81;;;4.98
20490;BMP280;10403;54.092;12.122;2024-02-28T07:44:43;102286.69;;;4.98
20490;BMP280;10403;54.092;12.122;2024-02-28T07:47:11;102280.63;;;4.98
20490;BMP280;10403;54.092;12.122;2024-02-28T07:49:39;102291.09;;;5.01
20490;BMP280;10403;54.092;12.122;2024-02-28T07:52:07;102285.91;;;5.01
20490;BMP280;10403;54.092;12.122;2024-02-28T07:54:34;102294.50;;;5.00
20490;BMP280;10403;54.092;12.122;2024-02-28T07:57:04;102298.09;;;5.03
20490;BMP280;10403;54.092;12.122;2024-02-28T07:59:31;102287.72;;;5.03
20490;BMP280;10403;54.092;12.122;2024-02-28T08:01:58;102282.59;;;5.05
20490;BMP280;10403;54.092;12.122;2024-02-28T08:04:26;102293.06;;;5.08
20490;BMP280;10403;54.092;12.122;2024-02-28T08:06:54;102277.28;;;5.02
20490;BMP280;10403;54.092;12.122;2024-02-28T08:09:21;102284.47;;;5.09
20490;BMP280;10403;54.092;12.122;2024-02-28T08:11:49;102272.97;;;5.02
20490;BMP280;10403;54.092;12.122;2024-02-28T08:14:16;102270.44;;;5.04
20490;BMP280;10403;54.092;12.122;2024-02-28T08:16:44;102289.69;;;5.10
20490;BMP280;10403;54.092;12.122;2024-02-28T08:19:11;102281.75;;;5.06
20490;BMP280;10403;54.092;12.122;2024-02-28T08:21:39;102289.78;;;5.13
20490;BMP280;10403;54.092;12.122;2024-02-28T08:24:06;102289.94;;;5.18
20490;BMP280;10403;54.092;12.122;2024-02-28T08:26:34;102289.16;;;5.20
20490;BMP280;10403;54.092;12.122;2024-02-28T08:29:01;102282.25;;;5.21
20490;BMP280;10403;54.092;12.122;2024-02-28T08:31:29;102289.25;;;5.24
20490;BMP280;10403;54.092;12.122;2024-02-28T08:33:58;102291.91;;;5.25
20490;BMP280;10403;54.092;12.122;2024-02-28T08:36:25;102285.88;;;5.26
20490;BMP280;10403;54.092;12.122;2024-02-28T08:38:53;102291.22;;;5.31
20490;BMP280;10403;54.092;12.122;2024-02-28T08:41:20;102293.84;;;5.32
20490;BMP280;10403;54.092;12.122;2024-02-28T08:43:47;102290.44;;;5.33
20490;BMP280;10403;54.092;12.122;2024-02-28T08:46:15;102292.31;;;5.37
20490;BMP280;10403;54.092;12.122;2024-02-28T08:48:45;102294.06;;;5.38
20490;BMP280;10403;54.092;12.122;2024-02-28T08:51:12;102290.66;;;5.41
20490;BMP280;10403;54.092;12.122;2024-02-28T08:53:39;102286.41;;;5.43
20490;BMP280;10403;54.092;12.122;2024-02-28T08:56:07;102302.09;;;5.46
20490;BMP280;10403;54.092;12.122;2024-02-28T08:58:37;102250.09;;;5.16
20490;BMP280;10403;54.092;12.122;2024-02-28T09:01:04;102294.44;;;5.50
20490;BMP280;10403;54.092;12.122;2024-02-28T09:03:34;102305.03;;;5.56
20490;BMP280;10403;54.092;12.122;2024-02-28T09:06:02;102299.91;;;5.59
20490;BMP280;10403;54.092;12.122;2024-02-28T09:08:29;102304.38;;;5.64
20490;BMP280;10403;54.092;12.122;2024-02-28T09:10:56;102303.59;;;5.66
20490;BMP280;10403;54.092;12.122;2024-02-28T09:13:24;102298.53;;;5.71
20490;BMP280;10403;54.092;12.122;2024-02-28T09:15:51;102292.59;;;5.75
20490;BMP280;10403;54.092;12.122;2024-02-28T09:18:22;102297.03;;;5.79
20490;BMP280;10403;54.092;12.122;2024-02-28T09:20:50;102302.34;;;5.82
20490;BMP280;10403;54.092;12.122;2024-02-28T09:23:18;102302.44;;;5.85
20490;BMP280;10403;54.092;12.122;2024-02-28T09:25:45;102296.31;;;5.83
20490;BMP280;10403;54.092;12.122;2024-02-28T09:28:12;102303.38;;;5.87
20490;BMP280;10403;54.092;12.122;2024-02-28T09:30:43;102301.75;;;5.90
20490;BMP280;10403;54.092;12.122;2024-02-28T09:33:19;102300.19;;;5.96
20490;BMP280;10403;54.092;12.122;2024-02-28T09:35:47;102292.34;;;5.94
20490;BMP280;10403;54.092;12.122;2024-02-28T09:38:14;102299.47;;;6.01
20490;BMP280;10403;54.092;12.122;2024-02-28T09:40:45;102296.09;;;6.04
20490;BMP280;10403;54.092;12.122;2024-02-28T09:43:29;102281.19;;;5.98
20490;BMP280;10403;54.092;12.122;2024-02-28T09:46:03;102298.69;;;6.04
20490;BMP280;10403;54.092;12.122;2024-02-28T09:48:31;102302.19;;;6.04
20490;BMP280;10403;54.092;12.122;2024-02-28T09:51:00;102298.81;;;6.08
20490;BMP280;10403;54.092;12.122;2024-02-28T09:53:27;102306.66;;;6.10
20490;BMP280;10403;54.092;12.122;2024-02-28T09:55:55;102304.16;;;6.13
20490;BMP280;10403;54.092;12.122;2024-02-28T09:58:23;102298.25;;;6.18
20490;BMP280;10403;54.092;12.122;2024-02-28T10:00:56;102306.25;;;6.24
20490;BMP280;10403;54.092;12.122;2024-02-28T10:03:29;102301.09;;;6.27
20490;BMP280;10403;54.092;12.122;2024-02-28T10:05:57;102303.91;;;6.34
20490;BMP280;10403;54.092;12.122;2024-02-28T10:08:25;102303.97;;;6.37
20490;BMP280;10403;54.092;12.122;2024-02-28T10:10:53;102304.06;;;6.40
20490;BMP280;10403;54.092;12.122;2024-02-28T10:13:22;102311.13;;;6.44
20490;BMP280;10403;54.092;12.122;2024-02-28T10:15:50;102307.75;;;6.48
20490;BMP280;10403;54.092;12.122;2024-02-28T10:18:17;102311.22;;;6.48
20490;BMP280;10403;54.092;12.122;2024-02-28T10:20:45;102311.38;;;6.53
20490;BMP280;10403;54.092;12.122;2024-02-28T10:23:12;102320.88;;;6.52
20490;BMP280;10403;54.092;12.122;2024-02-28T10:25:46;102311.19;;;6.47
20490;BMP280;10403;54.092;12.122;2024-02-28T10:28:24;102309.59;;;6.52
20490;BMP280;10403;54.092;12.122;2024-02-28T10:30:53;102317.56;;;6.58
20490;BMP280;10403;54.092;12.122;2024-02-28T10:33:21;102320.41;;;6.67
20490;BMP280;10403;54.092;12.122;2024-02-28T10:35:50;102305.69;;;6.67
20490;BMP280;10403;54.092;12.122;2024-02-28T10:38:21;102314.63;;;6.77
20490;BMP280;10403;54.092;12.122;2024-02-28T10:40:48;102322.75;;;6.89
20490;BMP280;10403;54.092;12.122;2024-02-28T10:43:18;102317.88;;;7.01
20490;BMP280;10403;54.092;12.122;2024-02-28T10:45:46;102323.34;;;7.12
20490;BMP280;10403;54.092;12.122;2024-02-28T10:48:33;102325.22;;;7.18
20490;BMP280;10403;54.092;12.122;2024-02-28T10:51:04;102325.31;;;7.21
20490;BMP280;10403;54.092;12.122;2024-02-28T10:53:41;102339.34;;;7.27
20490;BMP280;10403;54.092;12.122;2024-02-28T10:56:13;102334.09;;;7.26
20490;BMP280;10403;54.092;12.122;2024-02-28T10:58:54;102330.66;;;7.27
20490;BMP280;10403;54.092;12.122;2024-02-28T11:01:24;102332.41;;;7.28
20490;BMP280;10403;54.092;12.122;2024-02-28T11:03:53;102321.94;;;7.26
20490;BMP280;10403;54.092;12.122;2024-02-28T11:06:22;102328.03;;;7.27
20490;BMP280;10403;54.092;12.122;2024-02-28T11:08:52;102334.16;;;7.29
20490;BMP280;10403;54.092;12.122;2024-02-28T11:11:29;102330.72;;;7.30
20490;BMP280;10403;54.092;12.122;2024-02-28T11:14:00;102322.00;;;7.28
20490;BMP280;10403;54.092;12.122;2024-02-28T11:16:33;102329.06;;;7.32
20490;BMP280;10403;54.092;12.122;2024-02-28T11:19:02;102317.84;;;7.34
20490;BMP280;10403;54.092;12.122;2024-02-28T11:21:35;102319.63;;;7.37
20490;BMP280;10403;54.092;12.122;2024-02-28T11:24:03;102310.88;;;7.35
20490;BMP280;10403;54.092;12.122;2024-02-28T11:26:31;102318.84;;;7.41
20490;BMP280;10403;54.092;12.122;2024-02-28T11:28:58;102317.22;;;7.46
20490;BMP280;10403;54.092;12.122;2024-02-28T11:31:25;102324.25;;;7.49
20490;BMP280;10403;54.092;12.122;2024-02-28T11:33:53;102320.00;;;7.52
20490;BMP280;10403;54.092;12.122;2024-02-28T11:36:22;102324.41;;;7.56
20490;BMP280;10403;54.092;12.122;2024-02-28T11:38:50;102310.47;;;7.54
20490;BMP280;10403;54.092;12.122;2024-02-28T11:41:26;102320.25;;;7.64
20490;BMP280;10403;54.092;12.122;2024-02-28T11:43:57;102315.13;;;7.67
20490;BMP280;10403;54.092;12.122;2024-02-28T11:46:24;102322.09;;;7.68
20490;BMP280;10403;54.092;12.122;2024-02-28T11:48:52;102308.94;;;7.62
20490;BMP280;10403;54.092;12.122;2024-02-28T11:51:21;102315.97;;;7.66
20490;BMP280;10403;54.092;12.122;2024-02-28T11:53:48;102318.56;;;7.66
20490;BMP280;10403;54.092;12.122;2024-02-28T11:56:19;102312.44;;;7.64
20490;BMP280;10403;54.092;12.122;2024-02-28T11:58:54;102312.41;;;7.61
20490;BMP280;10403;54.092;12.122;2024-02-28T12:01:38;102305.44;;;7.60
20490;BMP280;10403;54.092;12.122;2024-02-28T12:04:06;102312.44;;;7.63
20490;BMP280;10403;54.092;12.122;2024-02-28T12:06:35;102311.59;;;7.64
20490;BMP280;10403;54.092;12.122;2024-02-28T12:09:09;102312.53;;;7.67
20490;BMP280;10403;54.092;12.122;2024-02-28T12:11:37;102303.09;;;7.72
20490;BMP280;10403;54.092;12.122;2024-02-28T12:14:07;102316.19;;;7.75
20490;BMP280;10403;54.092;12.122;2024-02-28T12:16:38;102297.06;;;7.73
20490;BMP280;10403;54.092;12.122;2024-02-28T12:19:11;102252.25;;;7.51
20490;BMP280;10403;54.092;12.122;2024-02-28T12:21:39;102305.97;;;7.85
20490;BMP280;10403;54.092;12.122;2024-02-28T12:24:09;102304.44;;;7.93
20490;BMP280;10403;54.092;12.122;2024-02-28T12:26:38;102301.97;;;8.00
20490;BMP280;10403;54.092;12.122;2024-02-28T12:29:07;102295.13;;;8.05
20490;BMP280;10403;54.092;12.122;2024-02-28T12:31:34;102258.31;;;7.90
20490;BMP280;10403;54.092;12.122;2024-02-28T12:34:02;102264.41;;;7.91
20490;BMP280;10403;54.092;12.122;2024-02-28T12:36:33;102295.16;;;8.07
20490;BMP280;10403;54.092;12.122;2024-02-28T12:39:01;102223.00;;;7.62
20490;BMP280;10403;54.092;12.122;2024-02-28T12:41:29;102283.78;;;8.02
20490;BMP280;10403;54.092;12.122;2024-02-28T12:43:57;102270.75;;;8.03
20490;BMP280;10403;54.092;12.122;2024-02-28T12:46:25;102218.94;;;7.76
20490;BMP280;10403;54.092;12.122;2024-02-28T12:48:52;102256.88;;;8.04
20490;BMP280;10403;54.092;12.122;2024-02-28T12:54:08;102269.19;;;8.11
20490;BMP280;10403;54.092;12.122;2024-02-28T12:56:37;102269.13;;;8.08
20490;BMP280;10403;54.092;12.122;2024-02-28T12:59:06;102243.72;;;7.98
20490;BMP280;10403;54.092;12.122;2024-02-28T13:01:36;102247.31;;;8.05
20490;BMP280;10403;54.092;12.122;2024-02-28T13:04:05;102214.84;;;7.88
20490;BMP280;10403;54.092;12.122;2024-02-28T13:06:32;102267.63;;;8.20
20490;BMP280;10403;54.092;12.122;2024-02-28T13:09:00;102200.84;;;7.83
20490;BMP280;10403;54.092;12.122;2024-02-28T13:11:27;102266.81;;;8.22
20490;BMP280;10403;54.092;12.122;2024-02-28T13:13:55;102189.38;;;7.74
20490;BMP280;10403;54.092;12.122;2024-02-28T13:16:22;102233.59;;;8.12
20490;BMP280;10403;54.092;12.122;2024-02-28T13:18:50;102249.38;;;8.20
20490;BMP280;10403;54.092;12.122;2024-02-28T13:21:18;102234.44;;;8.11
20490;BMP280;10403;54.092;12.122;2024-02-28T13:23:46;102213.44;;;8.05
20490;BMP280;10403;54.092;12.122;2024-02-28T13:26:14;102237.31;;;8.26
20490;BMP280;10403;54.092;12.122;2024-02-28T13:28:46;102248.03;;;8.38
20490;BMP280;10403;54.092;12.122;2024-02-28T13:31:18;102235.00;;;8.38
20490;BMP280;10403;54.092;12.122;2024-02-28T13:33:45;102247.34;;;8.48
20490;BMP280;10403;54.092;12.122;2024-02-28T13:36:16;102254.53;;;8.60
20490;BMP280;10403;54.092;12.122;2024-02-28T13:38:43;102243.16;;;8.57
20490;BMP280;10403;54.092;12.122;2024-02-28T13:41:11;102210.75;;;8.45
20490;BMP280;10403;54.092;12.122;2024-02-28T13:43:39;102204.63;;;8.43
20490;BMP280;10403;54.092;12.122;2024-02-28T13:46:06;102228.44;;;8.60
20490;BMP280;10403;54.092;12.122;2024-02-28T13:48:33;102202.06;;;8.45
20490;BMP280;10403;54.092;12.122;2024-02-28T13:51:01;102246.75;;;8.65
20490;BMP280;10403;54.092;12.122;2024-02-28T13:53:29;102244.13;;;8.63
20490;BMP280;10403;54.092;12.122;2024-02-28T13:55:57;102229.16;;;8.51
20490;BMP280;10403;54.092;12.122;2024-02-28T13:58:27;102237.00;;;8.54
20490;BMP280;10403;54.092;12.122;2024-02-28T14:01:06;102239.69;;;8.58
20490;BMP280;10403;54.092;12.122;2024-02-28T14:03:34;102234.38;;;8.53
20490;BMP280;10403;54.092;12.122;2024-02-28T14:06:02;102212.50;;;8.45